createdAt,value
2022-10-28T01:37:43.420Z,17.30
2022-10-28T01:41:38.918Z,17.30
2022-10-28T01:45:21.110Z,16.00
2022-10-28T01:48:51.365Z,15.20
2022-10-28T01:52:49.497Z,15.10
2022-10-28T01:56:27.599Z,13.90
2022-10-28T01:59:58.340Z,16.70
2022-10-28T02:03:18.345Z,18.60
2022-10-28T02:07:06.376Z,19.60
2022-10-28T02:10:46.459Z,19.80
2022-10-28T02:40:39.320Z,20.10
2022-10-28T02:46:47.269Z,17.40
2022-10-28T02:50:37.568Z,18.40
2022-10-28T02:57:19.793Z,17.80
2022-10-28T03:00:29.078Z,19.50
2022-10-28T03:03:41.178Z,14.80
2022-10-28T03:10:05.087Z,17.20
2022-10-28T03:13:06.373Z,17.20
2022-10-28T03:17:30.588Z,19.40
2022-10-28T03:20:14.289Z,16.90
2022-10-28T03:23:12.364Z,17.60
2022-10-28T03:26:23.354Z,17.70
2022-10-28T03:29:45.698Z,17.90
2022-10-28T03:32:45.766Z,19.10
2022-10-28T03:35:28.159Z,17.40
2022-10-28T03:38:08.878Z,17.70
2022-10-28T03:40:55.438Z,18.50
2022-10-28T03:43:54.688Z,17.20
2022-10-28T03:50:27.221Z,17.90
2022-10-28T03:53:40.025Z,22.50
2022-10-28T03:56:42.508Z,19.20
2022-10-28T03:59:24.986Z,20.30
2022-10-28T04:02:04.424Z,19.50
2022-10-28T04:04:45.247Z,19.40
2022-10-28T04:07:26.963Z,18.90
2022-10-28T04:10:01.964Z,21.50
2022-10-28T04:12:44.580Z,19.90
2022-10-28T04:15:24.759Z,19.40
2022-10-28T04:18:07.153Z,20.40
2022-10-28T04:21:33.595Z,21.20
2022-10-28T04:24:27.058Z,20.90
2022-10-28T04:27:30.468Z,18.30
2022-10-28T04:33:10.452Z,18.80
2022-10-28T04:35:47.508Z,19.20
2022-10-28T04:38:20.680Z,18.40
2022-10-28T04:40:51.771Z,19.50
2022-10-28T04:43:22.571Z,20.60
2022-10-28T04:45:53.497Z,22.10
2022-10-28T04:48:31.646Z,23.30
2022-10-28T04:51:03.698Z,21.80
2022-10-28T04:53:41.244Z,21.10
2022-10-28T04:56:15.549Z,18.90
2022-10-28T04:59:18.181Z,18.40
2022-10-28T05:01:53.780Z,17.70
2022-10-28T05:04:25.262Z,18.30
2022-10-28T05:06:55.914Z,17.60
2022-10-28T05:09:27.893Z,19.50
2022-10-28T05:11:58.760Z,19.50
2022-10-28T05:14:29.714Z,20.10
2022-10-28T05:17:00.536Z,23.10
2022-10-28T05:19:36.468Z,22.80
2022-10-28T05:22:44.758Z,19.60
2022-10-28T05:25:25.673Z,19.20
2022-10-28T05:28:00.511Z,19.20
2022-10-28T05:30:34.310Z,18.60
2022-10-28T05:33:06.891Z,17.40
2022-10-28T05:35:39.225Z,18.80
2022-10-28T05:38:09.794Z,19.50
2022-10-28T05:40:40.281Z,19.10
2022-10-28T05:43:12.063Z,20.40
2022-10-28T05:45:48.126Z,21.90
2022-10-28T05:48:22.120Z,23.00
2022-10-28T05:50:58.563Z,22.50
2022-10-28T05:53:29.036Z,21.40
2022-10-28T05:57:05.148Z,17.60
2022-10-28T06:00:19.426Z,18.50
2022-10-28T06:07:48.522Z,18.00
2022-10-28T06:11:14.605Z,19.00
2022-10-28T06:13:48.069Z,17.90
2022-10-28T06:19:34.191Z,20.70
2022-10-28T06:22:40.319Z,20.30
2022-10-28T06:26:21.024Z,16.40
2022-10-28T06:28:58.561Z,16.50
2022-10-28T06:31:39.333Z,16.90
2022-10-28T06:34:31.026Z,18.10
2022-10-28T06:37:19.357Z,18.50
2022-10-28T06:39:57.071Z,19.30
2022-10-28T06:42:29.550Z,20.70
2022-10-28T06:45:11.460Z,21.60
2022-10-28T06:47:49.419Z,18.60
2022-10-28T06:50:21.231Z,18.20
2022-10-28T06:53:01.057Z,16.30
2022-10-28T06:55:34.022Z,16.80
2022-10-28T06:58:12.745Z,16.30
2022-10-28T07:00:45.037Z,18.90
2022-10-28T07:03:28.344Z,18.80
2022-10-28T07:06:26.750Z,20.90
2022-10-28T07:09:17.478Z,20.70
2022-10-28T07:12:25.607Z,22.20
2022-10-28T07:15:29.491Z,17.10
2022-10-28T07:18:25.223Z,16.70
2022-10-28T07:21:30.336Z,15.00
2022-10-28T07:24:19.308Z,15.50
2022-10-28T07:26:57.032Z,19.00
2022-10-28T07:29:41.851Z,20.50
2022-10-28T07:32:29.541Z,21.50
2022-10-28T07:35:36.933Z,16.30
2022-10-28T07:38:47.838Z,14.30
2022-10-28T07:41:20.971Z,14.30
2022-10-28T07:43:53.699Z,19.10
2022-10-28T07:46:39.460Z,20.40
2022-10-28T07:49:46.127Z,16.70
2022-10-28T07:52:19.429Z,20.40
2022-10-28T07:54:51.899Z,16.80
2022-10-28T07:57:25.080Z,14.50
2022-10-28T07:59:56.648Z,15.10
2022-10-28T08:02:27.918Z,14.30
2022-10-28T08:05:04.078Z,18.00
2022-10-28T08:07:38.509Z,19.50
2022-10-28T08:10:14.245Z,19.90
2022-10-28T08:12:51.367Z,19.90
2022-10-28T08:15:24.403Z,15.80
2022-10-28T08:17:56.611Z,14.40
2022-10-28T08:20:29.064Z,13.20
2022-10-28T08:23:15.878Z,17.60
2022-10-28T08:26:03.065Z,19.50
2022-10-28T08:28:34.729Z,19.30
2022-10-28T08:31:21.137Z,14.30
2022-10-28T08:34:04.519Z,13.60
2022-10-28T08:37:28.437Z,12.80
2022-10-28T08:40:21.625Z,17.30
2022-10-28T08:43:52.929Z,19.50
2022-10-28T08:52:23.618Z,16.80
2022-10-28T09:07:17.847Z,17.80
2022-10-28T09:10:04.923Z,17.60
2022-10-28T09:13:28.300Z,15.20
2022-10-28T09:18:08.544Z,13.50
2022-10-28T09:20:17.882Z,14.30
2022-10-28T09:26:51.053Z,17.60
2022-10-28T09:33:57.649Z,17.20
2022-10-28T09:36:40.201Z,11.10
2022-10-28T09:39:23.980Z,11.30
2022-10-28T09:41:58.843Z,12.60
2022-10-28T09:47:33.679Z,16.20
2022-10-28T09:50:08.166Z,15.50
2022-10-28T09:52:43.428Z,16.50
2022-10-28T09:55:23.889Z,14.90
2022-10-28T10:00:45.340Z,11.20
2022-10-28T10:03:18.584Z,11.30
2022-10-28T10:05:53.854Z,13.80
2022-10-28T10:08:26.969Z,14.30
2022-10-28T10:11:01.201Z,14.60
2022-10-28T10:13:38.364Z,14.80
2022-10-28T10:16:15.415Z,14.00
2022-10-28T10:24:36.446Z,9.30
2022-10-28T10:27:14.819Z,9.70
2022-10-28T10:29:47.437Z,12.60
2022-10-28T10:32:21.798Z,13.10
2022-10-28T10:35:01.212Z,12.70
2022-10-28T10:37:33.798Z,12.00
2022-10-28T10:43:30.807Z,8.60
2022-10-28T10:46:08.978Z,8.20
2022-10-28T10:48:40.166Z,10.20
2022-10-28T10:51:27.039Z,10.80
2022-10-28T10:54:00.627Z,11.50
2022-10-28T10:56:33.127Z,11.50
2022-10-28T10:59:24.063Z,11.90
2022-10-28T11:01:55.154Z,12.40
2022-10-28T11:07:16.936Z,8.00
2022-10-28T11:09:49.862Z,10.80
2022-10-28T11:12:28.254Z,11.50
2022-10-28T11:17:58.519Z,10.60
2022-10-28T11:20:35.924Z,10.90
2022-10-28T11:23:18.877Z,10.30
2022-10-28T11:25:53.799Z,8.20
2022-10-28T11:28:58.777Z,8.10
2022-10-28T11:32:06.094Z,7.60
2022-10-28T11:41:21.162Z,10.00
2022-10-28T11:43:55.375Z,9.40
2022-10-28T11:46:39.512Z,9.10
2022-10-28T11:53:04.920Z,6.10
2022-10-28T11:55:38.453Z,7.40
2022-10-28T12:01:18.893Z,7.90
2022-10-28T12:04:07.840Z,7.80
2022-10-28T12:07:09.240Z,7.00
2022-10-28T12:12:44.789Z,4.80
2022-10-28T12:18:17.560Z,7.90
2022-10-28T12:20:53.345Z,7.10
2022-10-28T12:23:25.357Z,7.00
2022-10-28T12:25:57.807Z,7.70
2022-10-28T12:28:32.826Z,7.30
2022-10-28T12:33:57.012Z,6.70
2022-10-28T12:36:34.686Z,5.80
2022-10-28T12:39:07.428Z,5.00
2022-10-28T12:41:56.324Z,6.40
2022-10-28T12:50:17.687Z,6.40
2022-10-28T12:52:54.834Z,6.90
2022-10-28T12:55:33.945Z,6.80
2022-10-28T12:58:10.871Z,7.50
2022-10-28T13:00:44.240Z,5.90
2022-10-28T13:03:18.527Z,5.70
2022-10-28T13:05:54.420Z,6.50
2022-10-28T13:08:49.428Z,7.00
2022-10-28T13:11:58.883Z,7.40
2022-10-28T13:18:24.173Z,7.40
2022-10-28T13:21:00.443Z,7.10
2022-10-28T13:23:33.389Z,7.20
2022-10-28T13:26:17.262Z,6.20
2022-10-28T13:28:50.218Z,5.10
2022-10-28T13:31:20.849Z,6.60
2022-10-28T13:33:55.370Z,7.10
2022-10-28T13:36:30.938Z,7.20
2022-10-28T13:39:03.667Z,7.60
2022-10-28T13:41:37.216Z,7.20
2022-10-28T13:44:33.143Z,7.50
2022-10-28T13:47:28.558Z,7.10
2022-10-28T13:50:37.437Z,7.70
2022-10-28T13:53:55.247Z,7.10
2022-10-28T13:56:51.905Z,7.10
2022-10-28T13:59:39.642Z,5.70
2022-10-28T14:02:35.282Z,5.50
2022-10-28T14:05:09.085Z,7.30
2022-10-28T14:07:51.190Z,7.80
2022-10-28T14:10:29.037Z,7.80
2022-10-28T14:13:05.720Z,9.70
2022-10-28T14:15:37.492Z,8.10
2022-10-28T14:24:32.650Z,7.80
2022-10-28T14:27:45.333Z,6.60
2022-10-28T14:30:25.794Z,6.10
2022-10-28T14:33:29.666Z,8.70
2022-10-28T14:36:26.046Z,9.90
2022-10-28T14:39:33.766Z,8.10
2022-10-28T14:42:23.291Z,7.80
2022-10-28T14:45:17.276Z,8.40
2022-10-28T14:48:12.190Z,9.30
2022-10-28T14:50:46.778Z,7.60
2022-10-28T14:53:26.338Z,9.30
2022-10-28T14:56:03.703Z,7.50
2022-10-28T14:58:38.865Z,9.50
2022-10-28T15:01:23.586Z,12.70
2022-10-28T15:04:01.058Z,16.10
2022-10-28T15:06:42.205Z,13.20
2022-10-28T15:09:23.516Z,12.00
2022-10-28T15:17:42.546Z,7.20
2022-10-28T15:20:28.441Z,6.90
2022-10-28T15:23:25.610Z,9.20
2022-10-28T15:26:12.663Z,9.70
2022-10-28T15:28:45.542Z,10.10
2022-10-28T15:31:20.567Z,11.50
2022-10-28T15:33:51.859Z,10.80
2022-10-28T15:36:26.613Z,8.00
2022-10-28T15:39:21.501Z,7.40
2022-10-28T15:41:57.484Z,7.50
2022-10-28T15:44:43.022Z,9.80
2022-10-28T15:47:34.196Z,10.50
2022-10-28T15:53:46.194Z,11.10
2022-10-28T15:56:23.183Z,8.90
2022-10-28T15:59:40.630Z,9.60
2022-10-28T16:05:49.627Z,7.40
2022-10-28T16:08:35.252Z,10.30
2022-10-28T16:11:20.321Z,10.70
2022-10-28T16:13:55.254Z,11.00
2022-10-28T16:16:43.573Z,11.70
2022-10-28T16:20:09.697Z,11.60
2022-10-28T16:26:16.626Z,9.10
2022-10-28T16:28:52.485Z,9.30
2022-10-28T16:31:27.927Z,9.30
2022-10-28T16:34:02.746Z,11.10
2022-10-28T16:36:47.620Z,12.10
2022-10-28T16:39:18.762Z,13.00
2022-10-28T16:44:46.531Z,12.10
2022-10-28T16:47:23.031Z,9.70
2022-10-28T16:52:41.525Z,9.80
2022-10-28T16:55:16.216Z,9.30
2022-10-28T16:57:58.997Z,11.50
2022-10-28T17:00:34.426Z,13.00
2022-10-28T17:09:03.404Z,12.50
2022-10-28T17:11:35.236Z,9.70
2022-10-28T17:14:06.336Z,10.00
2022-10-28T17:16:46.170Z,8.90
2022-10-28T17:22:11.598Z,11.40
2022-10-28T17:24:57.738Z,11.70
2022-10-28T17:27:33.016Z,11.80
2022-10-28T17:30:09.600Z,12.90
2022-10-28T17:35:50.350Z,9.00
2022-10-28T17:38:27.864Z,9.20
2022-10-28T17:41:02.118Z,10.10
2022-10-28T17:43:42.088Z,10.70
2022-10-28T17:49:20.636Z,12.10
2022-10-28T17:52:23.988Z,12.10
2022-10-28T17:55:25.500Z,9.80
2022-10-28T17:58:04.007Z,8.60
2022-10-28T18:00:44.357Z,9.00
2022-10-28T18:03:33.974Z,8.30
2022-10-28T18:06:15.369Z,11.10
2022-10-28T18:08:47.460Z,11.40
2022-10-28T18:11:33.817Z,10.80
2022-10-28T18:14:15.959Z,12.30
2022-10-28T18:17:48.891Z,10.90
2022-10-28T18:20:20.321Z,8.90
2022-10-28T18:22:57.599Z,7.90
2022-10-28T18:25:33.503Z,9.70
2022-10-28T18:28:26.898Z,11.10
2022-10-28T18:34:27.520Z,10.90
2022-10-28T18:37:14.050Z,9.40
2022-10-28T18:42:54.378Z,9.10
2022-10-28T18:51:30.798Z,11.30
2022-10-28T18:54:25.232Z,11.80
2022-10-28T18:57:08.246Z,11.20
2022-10-28T19:00:17.410Z,9.90
2022-10-28T19:03:23.858Z,8.00
2022-10-28T19:06:18.096Z,8.70
2022-10-28T19:09:11.048Z,8.40
2022-10-28T19:11:44.953Z,9.90
2022-10-28T19:14:20.179Z,10.20
2022-10-28T19:16:57.845Z,9.90
2022-10-28T19:19:28.861Z,9.60
2022-10-28T19:22:00.718Z,9.80
2022-10-28T19:24:32.912Z,9.10
2022-10-28T19:31:43.878Z,7.80
2022-10-28T19:40:07.886Z,8.70
2022-10-28T19:48:47.593Z,9.90
2022-10-28T20:00:50.380Z,7.90
2022-10-28T22:32:03.694Z,12.50
2022-10-28T22:43:49.650Z,9.90
2022-10-28T22:47:42.772Z,8.80
2022-10-28T23:22:27.840Z,11.30
2022-10-28T23:37:41.159Z,8.90
